createdAt,value
2022-08-03T00:00:15.380Z,23.08
2022-08-03T00:03:09.906Z,23.13
2022-08-03T00:06:03.540Z,23.14
2022-08-03T00:08:34.115Z,23.08
2022-08-03T00:11:13.037Z,23.08
2022-08-03T00:13:44.898Z,23.07
2022-08-03T00:16:17.061Z,22.97
2022-08-03T00:18:51.815Z,22.96
2022-08-03T00:21:24.103Z,22.91
2022-08-03T00:23:56.117Z,22.77
2022-08-03T00:26:28.464Z,22.74
2022-08-03T00:29:00.419Z,22.66
2022-08-03T00:31:44.959Z,22.58
2022-08-03T00:34:36.472Z,22.64
2022-08-03T00:37:20.105Z,22.55
2022-08-03T00:40:24.036Z,22.58
2022-08-03T00:42:58.972Z,22.78
2022-08-03T00:45:34.088Z,22.88
2022-08-03T00:48:30.138Z,22.85
2022-08-03T00:51:03.347Z,22.74
2022-08-03T00:53:37.312Z,22.55
2022-08-03T00:56:09.515Z,22.65
2022-08-03T01:01:15.676Z,22.81
2022-08-03T01:03:48.314Z,22.68
2022-08-03T01:06:35.443Z,22.78
2022-08-03T01:09:15.976Z,22.88
2022-08-03T01:12:00.457Z,22.88
2022-08-03T01:14:42.465Z,22.81
2022-08-03T01:17:24.674Z,22.68
2022-08-03T01:20:14.005Z,22.75
2022-08-03T01:23:18.203Z,22.62
2022-08-03T01:26:13.111Z,22.33
2022-08-03T01:29:03.363Z,22.41
2022-08-03T01:32:53.303Z,22.28
2022-08-03T01:34:44.898Z,22.55
2022-08-03T01:37:25.521Z,22.67
2022-08-03T01:40:00.924Z,22.42
2022-08-03T01:42:43.367Z,22.49
2022-08-03T01:45:18.375Z,22.44
2022-08-03T01:47:55.103Z,22.54
2022-08-03T01:50:30.991Z,22.43
2022-08-03T01:53:05.270Z,22.54
2022-08-03T01:55:40.722Z,22.57
2022-08-03T01:58:17.134Z,22.60
2022-08-03T02:00:51.686Z,22.53
2022-08-03T02:03:28.762Z,22.35
2022-08-03T02:07:02.735Z,22.37
2022-08-03T02:08:58.155Z,22.42
2022-08-03T02:11:31.040Z,22.64
2022-08-03T02:14:07.749Z,22.57
2022-08-03T02:16:40.442Z,22.76
2022-08-03T02:19:16.995Z,22.75
2022-08-03T02:21:56.874Z,22.80
2022-08-03T02:24:35.250Z,22.80
2022-08-03T02:27:14.297Z,22.85
2022-08-03T02:29:52.525Z,22.88
2022-08-03T02:32:30.511Z,22.94
2022-08-03T02:35:09.615Z,22.91
2022-08-03T02:37:49.721Z,22.90
2022-08-03T02:40:27.623Z,22.95
2022-08-03T02:43:03.233Z,22.86
2022-08-03T02:45:41.514Z,22.79
2022-08-03T02:48:23.787Z,22.75
2022-08-03T02:51:02.202Z,22.65
2022-08-03T02:53:35.189Z,22.57
2022-08-03T02:56:10.770Z,22.59
2022-08-03T02:58:46.053Z,22.52
2022-08-03T03:01:19.208Z,22.53
2022-08-03T03:03:52.431Z,22.54
2022-08-03T03:06:30.170Z,22.51
2022-08-03T03:09:03.733Z,22.44
2022-08-03T03:11:37.810Z,22.39
2022-08-03T03:14:13.560Z,22.16
2022-08-03T03:16:51.794Z,22.10
2022-08-03T03:19:30.725Z,22.10
2022-08-03T03:22:09.349Z,22.13
2022-08-03T03:24:43.376Z,22.11
2022-08-03T03:27:17.977Z,22.06
2022-08-03T03:29:51.006Z,22.06
2022-08-03T03:32:23.675Z,22.02
2022-08-03T03:34:56.899Z,22.11
2022-08-03T03:37:33.146Z,22.17
2022-08-03T03:40:05.382Z,22.09
2022-08-03T03:42:38.787Z,22.25
2022-08-03T03:45:12.883Z,22.28
2022-08-03T03:47:45.913Z,22.32
2022-08-03T03:50:21.672Z,22.22
2022-08-03T03:52:57.233Z,22.32
2022-08-03T03:55:29.619Z,22.33
2022-08-03T03:58:04.485Z,22.31
2022-08-03T04:00:37.109Z,22.27
2022-08-03T04:03:30.086Z,22.29
2022-08-03T04:06:29.765Z,22.24
2022-08-03T04:09:17.310Z,22.26
2022-08-03T04:11:56.772Z,22.10
2022-08-03T04:14:33.298Z,22.18
2022-08-03T04:17:08.443Z,22.19
2022-08-03T04:19:45.680Z,22.08
2022-08-03T04:22:21.959Z,22.32
2022-08-03T04:25:03.355Z,22.42
2022-08-03T04:27:39.925Z,22.33
2022-08-03T04:30:14.327Z,22.36
2022-08-03T04:32:52.133Z,22.33
2022-08-03T04:35:26.352Z,22.40
2022-08-03T04:38:22.146Z,22.35
2022-08-03T04:40:59.619Z,22.40
2022-08-03T04:43:36.224Z,22.37
2022-08-03T04:46:11.941Z,22.40
2022-08-03T04:48:45.473Z,22.41
2022-08-03T04:51:18.985Z,22.45
2022-08-03T04:53:51.342Z,22.46
2022-08-03T04:56:27.521Z,22.52
2022-08-03T04:58:59.870Z,22.57
2022-08-03T05:01:32.471Z,22.49
2022-08-03T05:04:04.700Z,22.55
2022-08-03T05:06:41.467Z,22.75
2022-08-03T05:09:48.933Z,22.75
2022-08-03T05:12:16.863Z,22.85
2022-08-03T05:14:49.546Z,22.91
2022-08-03T05:17:22.863Z,22.87
2022-08-03T05:19:55.238Z,22.90
2022-08-03T05:22:27.838Z,23.13
2022-08-03T05:25:00.372Z,23.21
2022-08-03T05:27:36.462Z,23.33
2022-08-03T05:30:30.743Z,23.07
2022-08-03T05:33:03.324Z,23.26
2022-08-03T05:35:56.793Z,23.38
2022-08-03T05:38:35.064Z,23.64
2022-08-03T05:41:22.399Z,23.88
2022-08-03T05:43:59.459Z,24.57
2022-08-03T05:46:31.921Z,25.42
2022-08-03T05:49:04.936Z,26.87
2022-08-03T05:51:37.480Z,27.76
2022-08-03T05:54:10.428Z,28.02
2022-08-03T05:56:43.571Z,28.98
2022-08-03T05:59:37.668Z,29.34
2022-08-03T06:02:11.070Z,30.02
2022-08-03T06:04:43.722Z,30.65
2022-08-03T06:07:15.885Z,31.25
2022-08-03T06:10:35.193Z,30.27
2022-08-03T06:12:41.823Z,30.67
2022-08-03T06:15:17.248Z,30.57
2022-08-03T06:17:50.632Z,31.48
2022-08-03T06:20:27.294Z,30.75
2022-08-03T06:23:01.188Z,31.12
2022-08-03T06:25:34.404Z,32.77
2022-08-03T06:28:09.484Z,31.92
2022-08-03T06:30:47.616Z,31.99
2022-08-03T06:33:22.089Z,32.48
2022-08-03T06:35:54.837Z,32.36
2022-08-03T06:38:26.887Z,33.33
2022-08-03T06:40:59.544Z,33.26
2022-08-03T06:43:31.631Z,33.48
2022-08-03T06:46:12.689Z,33.29
2022-08-03T06:48:50.748Z,33.59
2022-08-03T06:52:04.384Z,34.14
2022-08-03T06:54:15.940Z,34.19
2022-08-03T06:56:50.340Z,34.09
2022-08-03T07:00:09.553Z,34.69
2022-08-03T07:02:19.983Z,34.41
2022-08-03T07:04:52.326Z,34.84
2022-08-03T07:07:23.906Z,35.55
2022-08-03T07:09:57.791Z,35.78
2022-08-03T07:12:31.274Z,35.18
2022-08-03T07:15:03.633Z,35.81
2022-08-03T07:17:39.827Z,36.31
2022-08-03T07:20:13.742Z,36.39
2022-08-03T07:22:46.477Z,36.65
2022-08-03T07:28:19.597Z,36.93
2022-08-03T07:30:51.574Z,37.23
2022-08-03T07:33:26.627Z,37.44
2022-08-03T07:35:58.575Z,36.39
2022-08-03T07:38:30.826Z,36.83
2022-08-03T07:41:03.466Z,37.11
2022-08-03T07:43:35.846Z,36.76
2022-08-03T07:46:07.812Z,36.84
2022-08-03T07:48:42.892Z,35.86
2022-08-03T07:51:22.833Z,37.35
2022-08-03T07:54:13.689Z,36.74
2022-08-03T07:56:45.462Z,36.98
2022-08-03T07:59:16.942Z,37.06
2022-08-03T08:01:55.124Z,37.02
2022-08-03T08:04:56.925Z,37.00
2022-08-03T08:07:51.093Z,37.08
2022-08-03T08:10:24.424Z,36.64
2022-08-03T08:12:56.866Z,36.52
2022-08-03T08:15:29.139Z,37.16
2022-08-03T08:18:03.639Z,37.48
2022-08-03T08:20:40.080Z,37.19
2022-08-03T08:23:42.598Z,36.43
2022-08-03T08:26:07.020Z,37.58
2022-08-03T08:28:39.238Z,37.56
2022-08-03T08:31:11.260Z,37.34
2022-08-03T08:36:39.379Z,36.94
2022-08-03T08:39:12.538Z,37.64
2022-08-03T08:42:10.851Z,36.72
2022-08-03T08:44:48.101Z,37.66
2022-08-03T08:47:22.586Z,38.54
2022-08-03T08:50:09.215Z,38.37
2022-08-03T08:52:46.729Z,38.28
2022-08-03T08:55:23.960Z,38.51
2022-08-03T08:58:01.436Z,38.46
2022-08-03T09:00:33.854Z,38.65
2022-08-03T09:03:05.959Z,38.68
2022-08-03T09:05:55.490Z,38.27
2022-08-03T09:08:32.278Z,38.72
2022-08-03T09:11:05.614Z,37.85
2022-08-03T09:13:38.619Z,37.87
2022-08-03T09:16:17.095Z,38.43
2022-08-03T09:18:51.514Z,37.96
2022-08-03T09:21:34.193Z,37.19
2022-08-03T09:24:25.659Z,38.62
2022-08-03T09:27:03.195Z,38.62
2022-08-03T09:29:36.435Z,38.87
2022-08-03T09:32:09.456Z,37.71
2022-08-03T09:34:41.754Z,38.74
2022-08-03T09:37:18.485Z,39.18
2022-08-03T09:39:53.878Z,38.72
2022-08-03T09:42:27.896Z,38.04
2022-08-03T09:45:02.955Z,37.69
2022-08-03T09:47:37.757Z,38.08
2022-08-03T09:50:17.604Z,37.39
2022-08-03T09:52:52.940Z,37.89
2022-08-03T09:56:34.189Z,38.93
2022-08-03T09:58:21.099Z,38.68
2022-08-03T10:01:01.934Z,39.16
2022-08-03T10:03:36.521Z,39.07
2022-08-03T10:06:29.312Z,38.41
2022-08-03T10:09:13.258Z,36.66
2022-08-03T10:11:49.959Z,37.87
2022-08-03T10:14:33.081Z,37.62
2022-08-03T10:17:05.858Z,37.96
2022-08-03T10:19:38.357Z,37.66
2022-08-03T10:22:16.256Z,38.10
2022-08-03T10:24:57.024Z,38.64
2022-08-03T10:27:37.101Z,38.63
2022-08-03T10:30:12.195Z,39.11
2022-08-03T10:32:47.234Z,38.31
2022-08-03T10:35:23.890Z,38.61
2022-08-03T10:38:01.616Z,38.38
2022-08-03T10:40:55.789Z,37.28
2022-08-03T10:43:37.475Z,37.59
2022-08-03T10:46:11.795Z,38.38
2022-08-03T10:48:44.656Z,38.28
2022-08-03T10:51:17.544Z,38.72
2022-08-03T10:53:54.553Z,38.47
2022-08-03T10:56:56.269Z,38.78
2022-08-03T11:00:00.469Z,37.58
2022-08-03T11:03:15.067Z,37.91
2022-08-03T11:05:54.094Z,37.10
2022-08-03T11:08:38.240Z,38.16
2022-08-03T11:11:28.942Z,38.47
2022-08-03T11:14:10.458Z,38.27
2022-08-03T11:16:58.773Z,38.00
2022-08-03T11:19:56.753Z,37.86
2022-08-03T11:22:56.022Z,37.24
2022-08-03T11:25:53.861Z,36.80
2022-08-03T11:28:30.722Z,37.50
2022-08-03T11:31:49.223Z,36.41
2022-08-03T11:34:21.852Z,36.97
2022-08-03T11:37:32.956Z,36.30
2022-08-03T11:40:11.011Z,36.72
2022-08-03T11:42:48.890Z,36.63
2022-08-03T11:45:21.792Z,37.01
2022-08-03T11:47:59.031Z,35.86
2022-08-03T11:50:40.995Z,35.95
2022-08-03T11:53:19.113Z,36.32
2022-08-03T11:55:54.310Z,35.56
2022-08-03T11:59:01.043Z,35.90
2022-08-03T12:01:23.098Z,36.12
2022-08-03T12:03:55.791Z,35.86
2022-08-03T12:06:27.515Z,35.43
2022-08-03T12:08:59.931Z,34.72
2022-08-03T12:11:37.531Z,34.86
2022-08-03T12:14:50.339Z,34.99
2022-08-03T12:17:23.188Z,34.92
2022-08-03T12:19:55.451Z,33.85
2022-08-03T12:22:35.632Z,33.76
2022-08-03T12:25:08.774Z,33.98
2022-08-03T12:27:43.291Z,33.69
2022-08-03T12:30:16.110Z,33.94
2022-08-03T12:32:48.152Z,34.48
2022-08-03T12:35:29.831Z,34.35
2022-08-03T12:38:01.509Z,34.12
2022-08-03T12:40:39.295Z,33.54
2022-08-03T12:43:22.351Z,34.25
2022-08-03T12:45:54.096Z,34.18
2022-08-03T12:48:25.233Z,34.56
2022-08-03T12:51:12.985Z,34.13
2022-08-03T12:53:44.493Z,34.20
2022-08-03T12:56:16.432Z,34.55
2022-08-03T12:58:51.894Z,34.37
2022-08-03T13:04:34.841Z,34.12
2022-08-03T13:07:14.382Z,34.61
2022-08-03T13:09:48.290Z,34.80
2022-08-03T13:12:22.063Z,34.91
2022-08-03T13:14:59.343Z,34.64
2022-08-03T13:17:32.163Z,34.43
2022-08-03T13:20:04.261Z,34.44
2022-08-03T13:22:36.801Z,34.65
2022-08-03T13:25:09.763Z,34.75
2022-08-03T13:28:03.829Z,34.10
2022-08-03T13:30:36.521Z,33.77
2022-08-03T13:33:08.941Z,33.46
2022-08-03T13:35:40.944Z,33.64
2022-08-03T13:38:13.356Z,33.95
2022-08-03T13:40:47.461Z,33.83
2022-08-03T13:43:22.722Z,33.90
2022-08-03T13:45:57.897Z,33.34
2022-08-03T13:48:35.908Z,33.50
2022-08-03T13:51:22.067Z,33.61
2022-08-03T13:53:55.603Z,33.76
2022-08-03T13:56:27.762Z,34.01
2022-08-03T13:59:01.062Z,33.89
2022-08-03T14:01:54.352Z,34.05
2022-08-03T14:04:28.121Z,34.08
2022-08-03T14:07:00.242Z,34.16
2022-08-03T14:09:32.903Z,33.82
2022-08-03T14:12:08.096Z,34.00
2022-08-03T14:14:40.772Z,34.07
2022-08-03T14:17:16.457Z,33.85
2022-08-03T14:19:53.421Z,34.20
2022-08-03T14:22:26.132Z,34.33
2022-08-03T14:24:58.701Z,34.16
2022-08-03T14:27:30.952Z,34.10
2022-08-03T14:30:03.710Z,34.33
2022-08-03T14:32:38.911Z,34.31
2022-08-03T14:35:12.631Z,34.47
2022-08-03T14:37:45.031Z,34.33
2022-08-03T14:40:17.640Z,34.38
2022-08-03T14:42:49.842Z,34.02
2022-08-03T14:45:22.152Z,34.19
2022-08-03T14:50:34.599Z,34.14
2022-08-03T14:50:51.675Z,34.28
2022-08-03T14:53:24.880Z,34.25
2022-08-03T14:56:09.626Z,33.95
2022-08-03T14:58:42.821Z,34.19
2022-08-03T15:02:03.343Z,33.70
2022-08-03T15:04:16.105Z,33.01
2022-08-03T15:06:48.599Z,33.55
2022-08-03T15:09:24.296Z,33.78
2022-08-03T15:11:56.840Z,33.70
2022-08-03T15:14:33.222Z,33.54
2022-08-03T15:17:07.960Z,33.95
2022-08-03T15:20:03.242Z,34.23
2022-08-03T15:22:35.940Z,34.04
2022-08-03T15:26:29.395Z,34.17
2022-08-03T15:28:03.461Z,34.06
2022-08-03T15:30:37.999Z,34.01
2022-08-03T15:33:14.168Z,33.97
2022-08-03T15:35:52.177Z,33.91
2022-08-03T15:38:30.206Z,33.70
2022-08-03T15:41:01.640Z,34.01
2022-08-03T15:43:33.664Z,33.96
2022-08-03T15:46:28.828Z,33.91
2022-08-03T15:49:02.421Z,33.89
2022-08-03T15:51:38.623Z,33.98
2022-08-03T15:54:11.400Z,34.16
2022-08-03T15:56:45.899Z,34.00
2022-08-03T15:59:20.080Z,34.15
2022-08-03T16:01:54.709Z,34.00
2022-08-03T16:04:27.355Z,34.05
2022-08-03T16:07:02.129Z,34.13
2022-08-03T16:09:43.304Z,34.23
2022-08-03T16:12:16.898Z,34.16
2022-08-03T16:14:53.338Z,33.99
2022-08-03T16:17:26.144Z,34.11
2022-08-03T16:19:59.686Z,33.79
2022-08-03T16:22:34.270Z,34.03
2022-08-03T16:25:06.466Z,34.08
2022-08-03T16:28:00.509Z,34.15
2022-08-03T16:30:40.580Z,34.02
2022-08-03T16:33:17.055Z,33.96
2022-08-03T16:35:53.756Z,33.76
2022-08-03T16:38:27.911Z,33.54
2022-08-03T16:41:01.869Z,33.68
2022-08-03T16:43:35.129Z,33.87
2022-08-03T16:46:14.488Z,33.55
2022-08-03T16:48:46.329Z,33.68
2022-08-03T16:51:18.255Z,33.73
2022-08-03T16:54:07.929Z,33.82
2022-08-03T16:56:42.078Z,33.72
2022-08-03T16:59:14.007Z,33.72
2022-08-03T17:01:49.929Z,33.90
2022-08-03T17:04:24.399Z,33.66
2022-08-03T17:06:56.699Z,33.78
2022-08-03T17:12:22.971Z,33.70
2022-08-03T17:14:59.342Z,33.80
2022-08-03T17:17:47.458Z,33.65
2022-08-03T17:20:29.754Z,33.79
2022-08-03T17:23:34.927Z,33.66
2022-08-03T17:26:04.592Z,33.51
2022-08-03T17:28:50.206Z,33.48
2022-08-03T17:31:31.302Z,33.43
2022-08-03T17:34:06.875Z,33.27
2022-08-03T17:37:03.402Z,33.10
2022-08-03T17:39:56.875Z,32.98
2022-08-03T17:42:30.634Z,32.88
2022-08-03T17:45:07.439Z,32.78
2022-08-03T17:47:42.653Z,32.70
2022-08-03T17:50:25.123Z,32.57
2022-08-03T17:53:14.453Z,32.50
2022-08-03T17:55:59.615Z,32.28
2022-08-03T17:58:55.170Z,32.24
2022-08-03T18:02:03.199Z,32.18
2022-08-03T18:04:45.103Z,32.15
2022-08-03T18:08:01.532Z,32.13
2022-08-03T18:10:49.588Z,32.13
2022-08-03T18:13:30.172Z,32.00
2022-08-03T18:16:04.841Z,31.90
2022-08-03T18:18:45.597Z,31.75
2022-08-03T20:13:03.561Z,26.80
2022-08-03T20:23:19.816Z,26.51
2022-08-03T20:27:30.607Z,26.43
2022-08-03T20:31:43.187Z,26.34
2022-08-03T20:35:19.229Z,26.27
2022-08-03T20:38:59.588Z,26.24
2022-08-03T20:46:32.822Z,26.14
2022-08-03T20:49:15.727Z,26.05
2022-08-03T20:51:52.575Z,25.99
2022-08-03T20:54:31.341Z,25.86
2022-08-03T20:57:07.165Z,25.82
2022-08-03T20:59:50.840Z,25.81
2022-08-03T21:02:30.174Z,25.73
2022-08-03T21:05:08.687Z,25.71
2022-08-03T21:08:06.160Z,25.70
2022-08-03T21:10:43.303Z,25.63
2022-08-03T21:13:24.012Z,25.60
2022-08-03T21:16:12.605Z,25.56
2022-08-03T21:19:02.566Z,25.52
2022-08-03T21:21:42.096Z,25.49
2022-08-03T21:24:16.318Z,25.43
2022-08-03T21:26:54.095Z,25.39
2022-08-03T21:29:27.680Z,25.37
2022-08-03T21:32:02.379Z,25.34
2022-08-03T21:34:34.901Z,25.28
2022-08-03T21:37:10.279Z,25.26
2022-08-03T21:39:50.919Z,25.24
2022-08-03T21:42:24.209Z,25.21
2022-08-03T21:44:57.236Z,25.15
2022-08-03T21:47:30.386Z,25.16
2022-08-03T21:50:09.644Z,25.07
2022-08-03T21:52:48.818Z,25.04
2022-08-03T21:55:21.300Z,24.98
2022-08-03T21:57:56.425Z,24.93
2022-08-03T22:00:28.808Z,24.89
2022-08-03T22:03:15.187Z,24.87
2022-08-03T22:05:49.607Z,24.87
2022-08-03T22:08:24.228Z,24.88
2022-08-03T22:10:56.152Z,24.82
2022-08-03T22:13:43.622Z,24.81
2022-08-03T22:16:18.051Z,24.76
2022-08-03T22:18:50.190Z,24.74
2022-08-03T22:21:27.968Z,24.71
2022-08-03T22:24:12.167Z,24.69
2022-08-03T22:27:07.211Z,24.63
2022-08-03T22:29:43.230Z,24.61
2022-08-03T22:32:15.264Z,24.69
2022-08-03T22:34:50.202Z,24.64
2022-08-03T22:37:24.469Z,24.60
2022-08-03T22:40:01.019Z,24.65
2022-08-03T22:42:35.541Z,24.53
2022-08-03T22:45:10.779Z,24.45
2022-08-03T22:48:04.137Z,24.47
2022-08-03T22:50:37.060Z,24.45
2022-08-03T22:53:10.853Z,24.47
2022-08-03T22:55:46.789Z,24.46
2022-08-03T22:58:21.204Z,24.39
2022-08-03T23:00:56.747Z,24.32
2022-08-03T23:03:58.764Z,24.29
2022-08-03T23:06:29.918Z,24.28
2022-08-03T23:09:01.879Z,24.07
2022-08-03T23:11:42.886Z,24.05
2022-08-03T23:14:20.043Z,24.11
2022-08-03T23:16:56.969Z,24.12
2022-08-03T23:19:34.368Z,24.10
2022-08-03T23:22:28.628Z,24.12
2022-08-03T23:25:04.403Z,23.95
2022-08-03T23:27:43.932Z,23.95
2022-08-03T23:30:16.442Z,23.95
2022-08-03T23:32:54.883Z,23.88
2022-08-03T23:36:28.698Z,23.80
2022-08-03T23:38:40.113Z,23.83
2022-08-03T23:41:13.655Z,23.83
2022-08-03T23:43:54.133Z,23.76
2022-08-03T23:46:30.596Z,23.72
2022-08-03T23:49:03.749Z,23.71
2022-08-03T23:51:47.439Z,23.70
2022-08-03T23:54:31.496Z,23.65
2022-08-03T23:57:12.909Z,23.62
2022-08-03T23:59:58.398Z,23.61
